Owatonna, Owatonna Degner Regional Airport (KOWA)

NameOwatonna Degner Regional Airport
CityOwatonna
CountryUnited States
ICAOKOWA
IATA
Altitude349 m
CoordinatesGoogle Map
Live Air TrafficLiveATC.net
METARKOWA 181354Z AUTO 14017G24KT 10SM CLR 08/04 A2974 RMK AO2
2019-10-18 13:54:00 Wind: Southeast (140°) 8.75 m/s - Visibility: 16093.4 m - Temperature: 8 °C - Dew point: 4 °C - Humidity: 76.1% - Pressure: 1007.11 hPa
Statistics

The table below shows the detailed information of all flights to/from Owatonna, Owatonna Degner Regional Airport (KOWA).